sensor_id;sensor_type;location;lat;lon;timestamp;pressure;altitude;pressure_sealevel;temperature;humidity
84136;BME280;74238;50.566;7.262;2023-11-21T00:01:25;100218.16;;;20.14;53.47
84136;BME280;74238;50.566;7.262;2023-11-21T00:03:51;100220.84;;;20.14;53.33
84136;BME280;74238;50.566;7.262;2023-11-21T00:06:17;100224.47;;;20.13;53.45
84136;BME280;74238;50.566;7.262;2023-11-21T00:08:43;100225.34;;;20.14;53.28
84136;BME280;74238;50.566;7.262;2023-11-21T00:11:08;100227.06;;;20.15;53.66
84136;BME280;74238;50.566;7.262;2023-11-21T00:13:33;100229.81;;;20.13;53.34
84136;BME280;74238;50.566;7.262;2023-11-21T00:15:59;100232.41;;;20.15;53.62
84136;BME280;74238;50.566;7.262;2023-11-21T00:18:24;100228.88;;;20.14;53.23
84136;BME280;74238;50.566;7.262;2023-11-21T00:20:49;100220.84;;;20.14;53.11
84136;BME280;74238;50.566;7.262;2023-11-21T00:23:14;100228.88;;;20.14;53.84
84136;BME280;74238;50.566;7.262;2023-11-21T00:25:40;100229.75;;;20.15;53.49
84136;BME280;74238;50.566;7.262;2023-11-21T00:28:05;100232.41;;;20.15;53.59
84136;BME280;74238;50.566;7.262;2023-11-21T00:30:31;100237.84;;;20.13;53.11
84136;BME280;74238;50.566;7.262;2023-11-21T00:32:56;100217.84;;;20.05;53.01
84136;BME280;74238;50.566;7.262;2023-11-21T00:35:22;100247.66;;;20.14;53.66
84136;BME280;74238;50.566;7.262;2023-11-21T00:37:47;100240.53;;;20.13;53.12
84136;BME280;74238;50.566;7.262;2023-11-21T00:40:15;100241.44;;;20.14;53.46
84136;BME280;74238;50.566;7.262;2023-11-21T00:42:41;100238.16;;;20.09;53.24
84136;BME280;74238;50.566;7.262;2023-11-21T00:45:07;100240.53;;;20.13;53.31
84136;BME280;74238;50.566;7.262;2023-11-21T00:47:32;100245.91;;;20.13;53.41
84136;BME280;74238;50.566;7.262;2023-11-21T00:49:57;100244.97;;;20.14;52.82
84136;BME280;74238;50.566;7.262;2023-11-21T00:52:23;100242.28;;;20.14;53.16
84136;BME280;74238;50.566;7.262;2023-11-21T00:54:48;100234.69;;;20.07;53.60
84136;BME280;74238;50.566;7.262;2023-11-21T00:57:14;100252.16;;;20.14;53.12
84136;BME280;74238;50.566;7.262;2023-11-21T00:59:39;100254.84;;;20.14;53.29
84136;BME280;74238;50.566;7.262;2023-11-21T01:02:05;100256.63;;;20.13;53.29
84136;BME280;74238;50.566;7.262;2023-11-21T01:04:30;100246.38;;;20.06;53.34
84136;BME280;74238;50.566;7.262;2023-11-21T01:06:57;100266.41;;;20.14;53.00
84136;BME280;74238;50.566;7.262;2023-11-21T01:09:23;100267.34;;;20.13;52.89
84136;BME280;74238;50.566;7.262;2023-11-21T01:11:49;100268.31;;;20.12;53.54
84136;BME280;74238;50.566;7.262;2023-11-21T01:14:14;100281.72;;;20.12;53.28
84136;BME280;74238;50.566;7.262;2023-11-21T01:16:39;100277.31;;;20.11;53.39
84136;BME280;74238;50.566;7.262;2023-11-21T01:19:05;100284.47;;;20.11;53.22
84136;BME280;74238;50.566;7.262;2023-11-21T01:21:30;100287.16;;;20.11;53.36
84136;BME280;74238;50.566;7.262;2023-11-21T01:23:56;100291.66;;;20.10;53.38
84136;BME280;74238;50.566;7.262;2023-11-21T01:26:21;100296.34;;;20.07;53.18
84136;BME280;74238;50.566;7.262;2023-11-21T01:28:47;100296.25;;;20.08;53.18
84136;BME280;74238;50.566;7.262;2023-11-21T01:31:14;100300.75;;;20.08;53.49
84136;BME280;74238;50.566;7.262;2023-11-21T01:33:40;100299.88;;;20.07;53.56
84136;BME280;74238;50.566;7.262;2023-11-21T01:36:05;100300.84;;;20.06;53.58
84136;BME280;74238;50.566;7.262;2023-11-21T01:38:31;100303.53;;;20.06;53.52
84136;BME280;74238;50.566;7.262;2023-11-21T01:40:57;100308.03;;;20.06;53.03
84136;BME280;74238;50.566;7.262;2023-11-21T01:43:22;100307.16;;;20.05;53.34
84136;BME280;74238;50.566;7.262;2023-11-21T01:45:48;100306.28;;;20.05;52.84
84136;BME280;74238;50.566;7.262;2023-11-21T01:48:13;100301.78;;;20.05;53.34
84136;BME280;74238;50.566;7.262;2023-11-21T01:50:39;100294.91;;;20.01;53.35
84136;BME280;74238;50.566;7.262;2023-11-21T01:53:05;100298.50;;;20.00;53.19
84136;BME280;74238;50.566;7.262;2023-11-21T01:55:32;100306.28;;;20.05;53.27
84136;BME280;74238;50.566;7.262;2023-11-21T01:58:00;100309.81;;;20.05;53.70
84136;BME280;74238;50.566;7.262;2023-11-21T02:00:25;100306.28;;;20.05;53.22
84136;BME280;74238;50.566;7.262;2023-11-21T02:02:53;100292.84;;;19.90;53.10
84136;BME280;74238;50.566;7.262;2023-11-21T02:05:19;100305.44;;;20.04;53.05
84136;BME280;74238;50.566;7.262;2023-11-21T02:07:47;100308.97;;;20.05;53.08
84136;BME280;74238;50.566;7.262;2023-11-21T02:10:18;100311.66;;;20.05;53.32
84136;BME280;74238;50.566;7.262;2023-11-21T02:12:50;100285.16;;;19.84;53.21
84136;BME280;74238;50.566;7.262;2023-11-21T02:15:16;100310.31;;;19.98;53.28
84136;BME280;74238;50.566;7.262;2023-11-21T02:17:45;100322.38;;;20.05;52.93
84136;BME280;74238;50.566;7.262;2023-11-21T02:20:12;100321.69;;;20.01;53.26
84136;BME280;74238;50.566;7.262;2023-11-21T02:22:44;100327.72;;;20.05;52.88
84136;BME280;74238;50.566;7.262;2023-11-21T02:25:10;100327.72;;;20.05;53.09
84136;BME280;74238;50.566;7.262;2023-11-21T02:27:36;100300.28;;;19.85;53.26
84136;BME280;74238;50.566;7.262;2023-11-21T02:30:03;100329.63;;;20.03;53.03
84136;BME280;74238;50.566;7.262;2023-11-21T02:32:29;100330.41;;;20.05;52.94
84136;BME280;74238;50.566;7.262;2023-11-21T02:34:56;100333.94;;;20.05;53.42
84136;BME280;74238;50.566;7.262;2023-11-21T02:37:26;100334.84;;;20.06;53.01
84136;BME280;74238;50.566;7.262;2023-11-21T02:39:51;100338.38;;;20.06;52.87
84136;BME280;74238;50.566;7.262;2023-11-21T02:42:16;100341.06;;;20.06;53.33
84136;BME280;74238;50.566;7.262;2023-11-21T02:44:42;100344.59;;;20.07;53.07
84136;BME280;74238;50.566;7.262;2023-11-21T02:47:07;100341.91;;;20.07;53.31
84136;BME280;74238;50.566;7.262;2023-11-21T02:49:35;100334.84;;;20.06;53.39
84136;BME280;74238;50.566;7.262;2023-11-21T02:52:01;100344.69;;;20.05;53.40
84136;BME280;74238;50.566;7.262;2023-11-21T02:54:26;100348.25;;;20.06;52.96
84136;BME280;74238;50.566;7.262;2023-11-21T02:56:52;100345.56;;;20.06;53.06
84136;BME280;74238;50.566;7.262;2023-11-21T02:59:17;100345.56;;;20.06;52.88
84136;BME280;74238;50.566;7.262;2023-11-21T03:01:43;100352.72;;;20.05;53.12
84136;BME280;74238;50.566;7.262;2023-11-21T03:04:08;100354.53;;;20.05;53.55
84136;BME280;74238;50.566;7.262;2023-11-21T03:06:33;100356.34;;;20.04;53.24
84136;BME280;74238;50.566;7.262;2023-11-21T03:08:59;100354.53;;;20.05;52.84
84136;BME280;74238;50.566;7.262;2023-11-21T03:11:24;100350.16;;;20.04;53.11
84136;BME280;74238;50.566;7.262;2023-11-21T03:13:50;100341.56;;;19.97;53.28
84136;BME280;74238;50.566;7.262;2023-11-21T03:16:16;100360.88;;;20.04;53.00
84136;BME280;74238;50.566;7.262;2023-11-21T03:18:41;100357.31;;;20.03;53.02
84136;BME280;74238;50.566;7.262;2023-11-21T03:21:07;100357.31;;;20.03;52.84
84136;BME280;74238;50.566;7.262;2023-11-21T03:23:36;100338.47;;;19.89;53.45
84136;BME280;74238;50.566;7.262;2023-11-21T03:26:02;100363.00;;;19.97;53.29
84136;BME280;74238;50.566;7.262;2023-11-21T03:28:27;100374.34;;;20.02;53.38
84136;BME280;74238;50.566;7.262;2023-11-21T03:30:53;100384.13;;;20.03;53.30
84136;BME280;74238;50.566;7.262;2023-11-21T03:33:19;100382.56;;;19.99;53.29
84136;BME280;74238;50.566;7.262;2023-11-21T03:35:44;100393.09;;;20.02;53.35
84136;BME280;74238;50.566;7.262;2023-11-21T03:38:10;100388.09;;;19.96;52.67
84136;BME280;74238;50.566;7.262;2023-11-21T03:40:36;100379.53;;;19.89;53.50
84136;BME280;74238;50.566;7.262;2023-11-21T03:43:01;100409.19;;;20.02;53.36
84136;BME280;74238;50.566;7.262;2023-11-21T03:45:26;100402.88;;;20.03;53.56
84136;BME280;74238;50.566;7.262;2023-11-21T03:47:52;100402.09;;;20.01;53.26
84136;BME280;74238;50.566;7.262;2023-11-21T03:50:17;100407.53;;;20.00;52.99
84136;BME280;74238;50.566;7.262;2023-11-21T03:52:42;100411.88;;;20.02;53.33
84136;BME280;74238;50.566;7.262;2023-11-21T03:55:08;100410.16;;;20.01;53.27
84136;BME280;74238;50.566;7.262;2023-11-21T03:57:36;100417.22;;;20.02;53.12
84136;BME280;74238;50.566;7.262;2023-11-21T04:00:02;100418.19;;;20.01;53.06
84136;BME280;74238;50.566;7.262;2023-11-21T04:02:29;100411.97;;;20.01;53.25
84136;BME280;74238;50.566;7.262;2023-11-21T04:04:56;100423.56;;;20.01;53.54
84136;BME280;74238;50.566;7.262;2023-11-21T04:07:22;100427.16;;;20.00;53.25
84136;BME280;74238;50.566;7.262;2023-11-21T04:09:47;100421.81;;;20.00;52.81
84136;BME280;74238;50.566;7.262;2023-11-21T04:12:12;100426.31;;;20.00;52.96
84136;BME280;74238;50.566;7.262;2023-11-21T04:14:38;100425.56;;;19.98;53.18
84136;BME280;74238;50.566;7.262;2023-11-21T04:17:03;100431.78;;;19.98;53.06
84136;BME280;74238;50.566;7.262;2023-11-21T04:19:29;100425.81;;;19.93;53.32
84136;BME280;74238;50.566;7.262;2023-11-21T04:21:54;100435.56;;;19.94;53.59
84136;BME280;74238;50.566;7.262;2023-11-21T04:24:20;100434.63;;;19.95;53.19
84136;BME280;74238;50.566;7.262;2023-11-21T04:26:45;100427.88;;;19.88;53.11
84136;BME280;74238;50.566;7.262;2023-11-21T04:29:11;100445.41;;;19.93;53.08
84136;BME280;74238;50.566;7.262;2023-11-21T04:31:37;100448.09;;;19.93;53.11
84136;BME280;74238;50.566;7.262;2023-11-21T04:34:02;100450.84;;;19.92;53.27
84136;BME280;74238;50.566;7.262;2023-11-21T04:36:29;100426.03;;;19.73;53.41
84136;BME280;74238;50.566;7.262;2023-11-21T04:38:56;100437.28;;;19.79;53.60
84136;BME280;74238;50.566;7.262;2023-11-21T04:41:21;100465.16;;;19.92;53.66
84136;BME280;74238;50.566;7.262;2023-11-21T04:43:46;100464.25;;;19.92;53.27
84136;BME280;74238;50.566;7.262;2023-11-21T04:46:12;100449.47;;;19.85;53.46
84136;BME280;74238;50.566;7.262;2023-11-21T04:48:37;100455.47;;;19.90;53.37
84136;BME280;74238;50.566;7.262;2023-11-21T04:51:03;100466.94;;;19.92;53.23
84136;BME280;74238;50.566;7.262;2023-11-21T04:53:29;100466.94;;;19.92;53.46
84136;BME280;74238;50.566;7.262;2023-11-21T04:55:54;100472.22;;;19.93;53.13
84136;BME280;74238;50.566;7.262;2023-11-21T04:58:20;100472.28;;;19.92;53.17
84136;BME280;74238;50.566;7.262;2023-11-21T05:00:45;100471.44;;;19.91;53.13
84136;BME280;74238;50.566;7.262;2023-11-21T05:03:11;100483.00;;;19.92;53.07
84136;BME280;74238;50.566;7.262;2023-11-21T05:05:37;100488.38;;;19.92;53.06
84136;BME280;74238;50.566;7.262;2023-11-21T05:08:03;100487.50;;;19.91;53.00
84136;BME280;74238;50.566;7.262;2023-11-21T05:10:28;100489.34;;;19.91;53.27
84136;BME280;74238;50.566;7.262;2023-11-21T05:12:54;100460.00;;;19.72;53.66
84136;BME280;74238;50.566;7.262;2023-11-21T05:15:20;100485.78;;;19.90;53.80
84136;BME280;74238;50.566;7.262;2023-11-21T05:17:46;100483.91;;;19.92;52.85
84136;BME280;74238;50.566;7.262;2023-11-21T05:20:15;100483.00;;;19.92;53.23
84136;BME280;74238;50.566;7.262;2023-11-21T05:22:45;100479.56;;;19.90;53.34
84136;BME280;74238;50.566;7.262;2023-11-21T05:25:11;100465.03;;;19.78;52.97
84136;BME280;74238;50.566;7.262;2023-11-21T05:27:37;100488.38;;;19.92;53.19
84136;BME280;74238;50.566;7.262;2023-11-21T05:30:03;100485.63;;;19.93;53.05
84136;BME280;74238;50.566;7.262;2023-11-21T05:32:34;100491.94;;;19.92;52.93
84136;BME280;74238;50.566;7.262;2023-11-21T05:34:59;100498.22;;;19.91;53.48
84136;BME280;74238;50.566;7.262;2023-11-21T05:37:25;100501.00;;;19.90;52.95
84136;BME280;74238;50.566;7.262;2023-11-21T05:39:52;100503.59;;;19.91;53.16
84136;BME280;74238;50.566;7.262;2023-11-21T05:42:18;100507.41;;;19.87;53.10
84136;BME280;74238;50.566;7.262;2023-11-21T05:44:43;100516.06;;;19.92;53.27
84136;BME280;74238;50.566;7.262;2023-11-21T05:47:09;100523.13;;;19.93;53.03
84136;BME280;74238;50.566;7.262;2023-11-21T05:49:34;100520.53;;;19.92;53.16
84136;BME280;74238;50.566;7.262;2023-11-21T05:52:00;100504.97;;;19.83;53.13
84136;BME280;74238;50.566;7.262;2023-11-21T05:54:25;100517.84;;;19.92;53.23
84136;BME280;74238;50.566;7.262;2023-11-21T05:56:51;100528.56;;;19.92;53.53
84136;BME280;74238;50.566;7.262;2023-11-21T05:59:16;100530.41;;;19.91;52.54
84136;BME280;74238;50.566;7.262;2023-11-21T06:01:41;100527.72;;;19.91;53.45
84136;BME280;74238;50.566;7.262;2023-11-21T06:04:07;100524.16;;;19.91;52.84
84136;BME280;74238;50.566;7.262;2023-11-21T06:06:36;100529.53;;;19.91;53.29
84136;BME280;74238;50.566;7.262;2023-11-21T06:09:01;100536.72;;;19.90;53.64
84136;BME280;74238;50.566;7.262;2023-11-21T06:11:27;100543.91;;;19.90;53.09
84136;BME280;74238;50.566;7.262;2023-11-21T06:13:52;100542.13;;;19.89;52.79
84136;BME280;74238;50.566;7.262;2023-11-21T06:16:18;100541.28;;;19.88;53.30
84136;BME280;74238;50.566;7.262;2023-11-21T06:18:45;100555.53;;;19.89;52.64
84136;BME280;74238;50.566;7.262;2023-11-21T06:21:11;100555.72;;;19.86;52.91
84136;BME280;74238;50.566;7.262;2023-11-21T06:23:36;100569.81;;;19.89;53.60
84136;BME280;74238;50.566;7.262;2023-11-21T06:26:02;100566.25;;;19.89;52.92
84136;BME280;74238;50.566;7.262;2023-11-21T06:28:29;100576.06;;;19.90;53.55
84136;BME280;74238;50.566;7.262;2023-11-21T06:30:54;100575.16;;;19.89;53.36
84136;BME280;74238;50.566;7.262;2023-11-21T06:33:20;100586.78;;;19.90;52.55
84136;BME280;74238;50.566;7.262;2023-11-21T06:35:46;100580.44;;;19.91;53.25
84136;BME280;74238;50.566;7.262;2023-11-21T06:38:12;100584.84;;;19.92;53.28
84136;BME280;74238;50.566;7.262;2023-11-21T06:40:37;100580.28;;;19.94;52.62
84136;BME280;74238;50.566;7.262;2023-11-21T06:43:03;100573.63;;;19.85;52.93
84136;BME280;74238;50.566;7.262;2023-11-21T06:45:30;100581.41;;;19.90;52.95
84136;BME280;74238;50.566;7.262;2023-11-21T06:47:55;100591.00;;;19.94;53.09
84136;BME280;74238;50.566;7.262;2023-11-21T06:50:20;100593.63;;;19.96;52.67
84136;BME280;74238;50.566;7.262;2023-11-21T06:52:46;100600.78;;;19.95;52.98
84136;BME280;74238;50.566;7.262;2023-11-21T06:55:11;100607.53;;;20.02;52.55
84136;BME280;74238;50.566;7.262;2023-11-21T06:57:37;100616.44;;;20.03;52.96
84136;BME280;74238;50.566;7.262;2023-11-21T07:00:05;100606.00;;;19.98;52.79
84136;BME280;74238;50.566;7.262;2023-11-21T07:02:34;100613.75;;;20.03;53.36
84136;BME280;74238;50.566;7.262;2023-11-21T07:04:59;100585.97;;;19.88;53.23
84136;BME280;74238;50.566;7.262;2023-11-21T07:07:25;100614.56;;;20.05;53.11
84136;BME280;74238;50.566;7.262;2023-11-21T07:09:50;100620.78;;;20.05;53.13
84136;BME280;74238;50.566;7.262;2023-11-21T07:12:17;100628.75;;;20.07;52.55
84136;BME280;74238;50.566;7.262;2023-11-21T07:14:43;100632.28;;;20.07;53.11
84136;BME280;74238;50.566;7.262;2023-11-21T07:17:12;100633.16;;;20.08;52.97
84136;BME280;74238;50.566;7.262;2023-11-21T07:19:38;100650.03;;;20.10;53.03
84136;BME280;74238;50.566;7.262;2023-11-21T07:22:03;100649.97;;;20.11;52.78
84136;BME280;74238;50.566;7.262;2023-11-21T07:24:31;100655.44;;;20.08;53.33
84136;BME280;74238;50.566;7.262;2023-11-21T07:26:57;100654.69;;;20.06;53.13
84136;BME280;74238;50.566;7.262;2023-11-21T07:29:23;100672.16;;;20.13;52.77
84136;BME280;74238;50.566;7.262;2023-11-21T07:31:50;100659.09;;;20.07;53.15
84136;BME280;74238;50.566;7.262;2023-11-21T07:34:16;100673.06;;;20.14;52.32
84136;BME280;74238;50.566;7.262;2023-11-21T07:36:41;100680.22;;;20.13;52.91
84136;BME280;74238;50.566;7.262;2023-11-21T07:39:06;100683.84;;;20.12;53.00
84136;BME280;74238;50.566;7.262;2023-11-21T07:41:32;100682.03;;;20.13;52.80
84136;BME280;74238;50.566;7.262;2023-11-21T07:43:57;100690.16;;;20.11;52.69
84136;BME280;74238;50.566;7.262;2023-11-21T07:46:23;100689.22;;;20.12;52.73
84136;BME280;74238;50.566;7.262;2023-11-21T07:48:49;100696.28;;;20.13;52.46
84136;BME280;74238;50.566;7.262;2023-11-21T07:51:14;100694.56;;;20.12;53.06
84136;BME280;74238;50.566;7.262;2023-11-21T07:53:40;100707.13;;;20.12;52.82
84136;BME280;74238;50.566;7.262;2023-11-21T07:56:06;100717.75;;;20.13;52.63
84136;BME280;74238;50.566;7.262;2023-11-21T07:58:35;100716.88;;;20.13;52.68
84136;BME280;74238;50.566;7.262;2023-11-21T08:01:02;100708.47;;;20.03;52.47
84136;BME280;74238;50.566;7.262;2023-11-21T08:03:27;100727.59;;;20.13;53.12
84136;BME280;74238;50.566;7.262;2023-11-21T08:05:55;100725.78;;;20.13;52.88
84136;BME280;74238;50.566;7.262;2023-11-21T08:08:21;100726.75;;;20.12;53.06
84136;BME280;74238;50.566;7.262;2023-11-21T08:10:46;100730.28;;;20.13;53.11
84136;BME280;74238;50.566;7.262;2023-11-21T08:13:22;100731.31;;;20.10;52.75
84136;BME280;74238;50.566;7.262;2023-11-21T08:15:47;100731.16;;;20.13;53.34
84136;BME280;74238;50.566;7.262;2023-11-21T08:18:13;100731.16;;;20.13;52.72
84136;BME280;74238;50.566;7.262;2023-11-21T08:20:40;100732.03;;;20.14;53.24
84136;BME280;74238;50.566;7.262;2023-11-21T08:23:05;100731.16;;;20.13;52.87
84136;BME280;74238;50.566;7.262;2023-11-21T08:25:31;100741.00;;;20.13;52.88
84136;BME280;74238;50.566;7.262;2023-11-21T08:27:57;100740.94;;;20.14;52.90
84136;BME280;74238;50.566;7.262;2023-11-21T08:30:22;100744.56;;;20.13;53.15
84136;BME280;74238;50.566;7.262;2023-11-21T08:32:49;100745.44;;;20.14;52.82
84136;BME280;74238;50.566;7.262;2023-11-21T08:35:16;100724.94;;;19.96;52.99
84136;BME280;74238;50.566;7.262;2023-11-21T08:37:41;100749.91;;;20.13;53.20
84136;BME280;74238;50.566;7.262;2023-11-21T08:40:07;100747.22;;;20.13;52.79
84136;BME280;74238;50.566;7.262;2023-11-21T08:42:35;100753.50;;;20.14;53.08
84136;BME280;74238;50.566;7.262;2023-11-21T08:45:00;100744.56;;;20.13;53.11
84136;BME280;74238;50.566;7.262;2023-11-21T08:47:25;100750.81;;;20.14;52.96
84136;BME280;74238;50.566;7.262;2023-11-21T08:49:51;100757.03;;;20.14;52.87
84136;BME280;74238;50.566;7.262;2023-11-21T08:52:19;100743.16;;;20.06;52.75
84136;BME280;74238;50.566;7.262;2023-11-21T08:54:48;100756.94;;;20.16;53.19
84136;BME280;74238;50.566;7.262;2023-11-21T08:57:14;100762.22;;;20.18;52.96
84136;BME280;74238;50.566;7.262;2023-11-21T08:59:39;100757.72;;;20.18;52.83
84136;BME280;74238;50.566;7.262;2023-11-21T09:02:04;100744.72;;;20.10;53.17
84136;BME280;74238;50.566;7.262;2023-11-21T09:04:30;100763.03;;;20.20;52.54
84136;BME280;74238;50.566;7.262;2023-11-21T09:06:55;100771.06;;;20.20;52.87
84136;BME280;74238;50.566;7.262;2023-11-21T09:09:20;100770.19;;;20.19;52.73
84136;BME280;74238;50.566;7.262;2023-11-21T09:11:46;100777.34;;;20.19;52.48
84136;BME280;74238;50.566;7.262;2023-11-21T09:14:14;100784.53;;;20.18;52.92
84136;BME280;74238;50.566;7.262;2023-11-21T09:16:41;100792.53;;;20.20;52.63
84136;BME280;74238;50.566;7.262;2023-11-21T09:19:06;100793.44;;;20.19;52.75
84136;BME280;74238;50.566;7.262;2023-11-21T09:21:31;100794.31;;;20.19;52.62
84136;BME280;74238;50.566;7.262;2023-11-21T09:23:57;100799.66;;;20.19;52.92
84136;BME280;74238;50.566;7.262;2023-11-21T09:26:23;100799.66;;;20.19;52.74
84136;BME280;74238;50.566;7.262;2023-11-21T09:28:48;100804.09;;;20.20;52.53
84136;BME280;74238;50.566;7.262;2023-11-21T09:31:16;100804.97;;;20.21;52.67
84136;BME280;74238;50.566;7.262;2023-11-21T09:33:43;100807.66;;;20.21;52.36
84136;BME280;74238;50.566;7.262;2023-11-21T09:36:12;100810.34;;;20.21;52.51
84136;BME280;74238;50.566;7.262;2023-11-21T09:38:41;100805.28;;;20.14;52.94
84136;BME280;74238;50.566;7.262;2023-11-21T09:41:13;100820.19;;;20.20;52.66
84136;BME280;74238;50.566;7.262;2023-11-21T09:43:43;100809.06;;;20.10;52.87
84136;BME280;74238;50.566;7.262;2023-11-21T09:46:11;100826.47;;;20.19;52.46
84136;BME280;74238;50.566;7.262;2023-11-21T09:48:42;100817.50;;;20.20;52.57
84136;BME280;74238;50.566;7.262;2023-11-21T09:51:10;100822.94;;;20.19;52.38
84136;BME280;74238;50.566;7.262;2023-11-21T09:53:36;100817.84;;;20.14;52.72
84136;BME280;74238;50.566;7.262;2023-11-21T09:56:03;100824.81;;;20.17;52.68
84136;BME280;74238;50.566;7.262;2023-11-21T09:58:29;100819.47;;;20.17;52.64
84136;BME280;74238;50.566;7.262;2023-11-21T10:00:55;100819.47;;;20.17;52.41
84136;BME280;74238;50.566;7.262;2023-11-21T10:03:22;100825.78;;;20.15;52.07
84136;BME280;74238;50.566;7.262;2023-11-21T10:05:50;100832.97;;;20.15;52.30
84136;BME280;74238;50.566;7.262;2023-11-21T10:08:16;100834.69;;;20.16;52.72
84136;BME280;74238;50.566;7.262;2023-11-21T10:10:46;100832.00;;;20.16;52.66
84136;BME280;74238;50.566;7.262;2023-11-21T10:13:13;100840.91;;;20.17;52.46
84136;BME280;74238;50.566;7.262;2023-11-21T10:15:42;100834.69;;;20.16;52.55
84136;BME280;74238;50.566;7.262;2023-11-21T10:18:12;100841.81;;;20.17;52.38
84136;BME280;74238;50.566;7.262;2023-11-21T10:20:40;100838.38;;;20.13;52.22
84136;BME280;74238;50.566;7.262;2023-11-21T10:23:05;100832.88;;;20.17;52.80
84136;BME280;74238;50.566;7.262;2023-11-21T10:25:32;100840.84;;;20.18;52.32
84136;BME280;74238;50.566;7.262;2023-11-21T10:27:59;100848.03;;;20.18;52.32
84136;BME280;74238;50.566;7.262;2023-11-21T10:30:34;100849.75;;;20.19;52.12
84136;BME280;74238;50.566;7.262;2023-11-21T10:33:03;100846.28;;;20.17;52.27
84136;BME280;74238;50.566;7.262;2023-11-21T10:35:48;100851.50;;;20.20;52.62
84136;BME280;74238;50.566;7.262;2023-11-21T10:38:16;100845.25;;;20.19;52.42
84136;BME280;74238;50.566;7.262;2023-11-21T10:40:43;100853.31;;;20.19;52.42
84136;BME280;74238;50.566;7.262;2023-11-21T10:43:11;100851.56;;;20.18;52.48
84136;BME280;74238;50.566;7.262;2023-11-21T10:45:38;100854.97;;;20.22;52.26
84136;BME280;74238;50.566;7.262;2023-11-21T10:48:08;100855.84;;;20.22;52.24
84136;BME280;74238;50.566;7.262;2023-11-21T10:50:35;100853.16;;;20.22;52.15
84136;BME280;74238;50.566;7.262;2023-11-21T10:53:04;100852.22;;;20.23;52.17
84136;BME280;74238;50.566;7.262;2023-11-21T10:55:33;100849.44;;;20.25;52.38
84136;BME280;74238;50.566;7.262;2023-11-21T10:58:01;100854.78;;;20.25;52.14
84136;BME280;74238;50.566;7.262;2023-11-21T11:00:31;100847.56;;;20.27;51.94
84136;BME280;74238;50.566;7.262;2023-11-21T11:02:57;100816.19;;;20.11;52.52
84136;BME280;74238;50.566;7.262;2023-11-21T11:05:25;100835.16;;;20.24;52.35
84136;BME280;74238;50.566;7.262;2023-11-21T11:07:56;100844.81;;;20.28;52.20
84136;BME280;74238;50.566;7.262;2023-11-21T11:10:26;100847.38;;;20.30;52.56
84136;BME280;74238;50.566;7.262;2023-11-21T11:12:53;100847.38;;;20.30;52.27
84136;BME280;74238;50.566;7.262;2023-11-21T11:15:20;100847.47;;;20.28;52.44
84136;BME280;74238;50.566;7.262;2023-11-21T11:17:46;100849.16;;;20.31;52.54
84136;BME280;74238;50.566;7.262;2023-11-21T11:20:14;100858.06;;;20.31;52.41
84136;BME280;74238;50.566;7.262;2023-11-21T11:28:21;100859.00;;;20.30;52.33
84136;BME280;74238;50.566;7.262;2023-11-21T11:30:58;100856.22;;;20.32;51.92
84136;BME280;74238;50.566;7.262;2023-11-21T11:33:42;100851.72;;;20.32;52.41
84136;BME280;74238;50.566;7.262;2023-11-21T11:36:17;100860.66;;;20.33;52.47
84136;BME280;74238;50.566;7.262;2023-11-21T11:38:47;100857.09;;;20.32;52.57
84136;BME280;74238;50.566;7.262;2023-11-21T11:41:24;100860.66;;;20.33;52.42
84136;BME280;74238;50.566;7.262;2023-11-21T11:43:50;100864.22;;;20.33;52.25
84136;BME280;74238;50.566;7.262;2023-11-21T11:46:15;100864.22;;;20.33;52.56
84136;BME280;74238;50.566;7.262;2023-11-21T11:48:40;100853.06;;;20.24;52.02
84136;BME280;74238;50.566;7.262;2023-11-21T11:51:10;100867.66;;;20.35;52.57
84136;BME280;74238;50.566;7.262;2023-11-21T11:53:41;100865.25;;;20.31;52.72
84136;BME280;74238;50.566;7.262;2023-11-21T11:56:19;100865.88;;;20.36;52.55
84136;BME280;74238;50.566;7.262;2023-11-21T11:58:54;100840.63;;;20.23;52.95
84136;BME280;74238;50.566;7.262;2023-11-21T12:01:21;100864.91;;;20.37;52.25
84136;BME280;74238;50.566;7.262;2023-11-21T12:06:42;100864.06;;;20.36;52.53
84136;BME280;74238;50.566;7.262;2023-11-21T12:09:27;100864.91;;;20.37;52.38
84136;BME280;74238;50.566;7.262;2023-11-21T12:11:53;100866.63;;;20.38;52.47
84136;BME280;74238;50.566;7.262;2023-11-21T12:14:22;100857.09;;;20.32;52.33
84136;BME280;74238;50.566;7.262;2023-11-21T12:16:48;100870.22;;;20.39;52.43
84136;BME280;74238;50.566;7.262;2023-11-21T12:19:13;100873.03;;;20.35;52.77
84136;BME280;74238;50.566;7.262;2023-11-21T12:21:39;100882.72;;;20.38;53.11
84136;BME280;74238;50.566;7.262;2023-11-21T12:24:11;100878.25;;;20.39;52.27
84136;BME280;74238;50.566;7.262;2023-11-21T12:26:39;100880.16;;;20.36;52.57
84136;BME280;74238;50.566;7.262;2023-11-21T12:29:05;100878.25;;;20.39;52.16
84136;BME280;74238;50.566;7.262;2023-11-21T12:31:33;100880.06;;;20.38;52.74
84136;BME280;74238;50.566;7.262;2023-11-21T12:33:58;100876.50;;;20.37;52.96
84136;BME280;74238;50.566;7.262;2023-11-21T12:36:24;100874.84;;;20.35;52.54
84136;BME280;74238;50.566;7.262;2023-11-21T12:38:50;100895.22;;;20.39;52.79
84136;BME280;74238;50.566;7.262;2023-11-21T12:41:16;100886.31;;;20.39;52.31
84136;BME280;74238;50.566;7.262;2023-11-21T12:43:42;100893.47;;;20.38;52.57
84136;BME280;74238;50.566;7.262;2023-11-21T12:46:10;100893.41;;;20.40;52.67
84136;BME280;74238;50.566;7.262;2023-11-21T12:48:39;100902.31;;;20.40;52.62
84136;BME280;74238;50.566;7.262;2023-11-21T12:51:07;100899.78;;;20.37;52.91
84136;BME280;74238;50.566;7.262;2023-11-21T12:53:33;100909.56;;;20.38;52.75
84136;BME280;74238;50.566;7.262;2023-11-21T12:56:12;100900.66;;;20.37;52.57